»·PEaware :: N32521 KSBP-KSMX

N32521 :: KSBP-KSMX

FLIGHT INFORMATION

Flight Status: Arrived
Operator: Privately registered:
United States
More flights under this callsign
Pilot: Jeff G. (16482)
Aircraft: PIPER PA-28R-201 ARROW
(P28R)
More flights by this aircraft type
Origin: KSBP San Luis Co Regl
United States
Destination: KSMX Santa Maria Pub/Capt Hancock
United States
More flights between these airports :: More routes between these airports
Route: DIRECT
File this flight plan on PilotEdge
Remarks: CAT-4
Altitude:
(Current/Filed)
3,500ft
Speed:
(Current/Filed)
130kts
Departed: 10-Sep-17 04:54 PM
Arrived: 10-Sep-17 05:26 PM
Distance/Time
Traveled:
22nm/0:32
Distance/Time
To Go:
Arrived

Flight Plot

Page will automatically refresh every two minutes.


Map Options




Map Legend


Flown Route
Filed Route
Departure Airport
Arrival Airport
Navaid (VOR, NDB)
Fix

Horizontal Profiles

Position Reports

Time Latitude Longitude Heading Altitude Ground
Speed
10-Sep-17 16:44 35.234432 -120.632957 304 212ft 0kts
10-Sep-17 16:45 35.234432 -120.632957 304 212ft 0kts
10-Sep-17 16:46 35.234432 -120.632957 304 212ft 0kts
10-Sep-17 16:47 35.234432 -120.632957 304 212ft 0kts
10-Sep-17 16:48 35.234432 -120.632957 304 212ft 0kts
10-Sep-17 16:49 35.234433 -120.632959 304 212ft 0kts
10-Sep-17 16:50 35.234433 -120.632959 304 212ft 0kts
10-Sep-17 16:51 35.234445 -120.632991 288 212ft 0kts
10-Sep-17 16:52 35.234367 -120.633357 286 211ft 12kts
10-Sep-17 16:53 35.233693 -120.632705 126 211ft 8kts
10-Sep-17 16:54 35.233322 -120.632438 197 210ft 0kts
10-Sep-17 16:55 35.233322 -120.632438 197 210ft 0kts
10-Sep-17 16:56 35.233173 -120.632503 198 210ft 0kts
10-Sep-17 16:57 35.233182 -120.633714 299 208ft 26kts
10-Sep-17 16:58 35.238918 -120.642799 298 420ft 99kts
10-Sep-17 16:59 35.243629 -120.655953 257 951ft 95kts
10-Sep-17 17:00 35.235082 -120.664864 192 1230ft 115kts
10-Sep-17 17:01 35.222841 -120.657664 134 1212ft 149kts
10-Sep-17 17:02 35.212170 -120.642084 133 1201ft 151kts
10-Sep-17 17:03 35.200868 -120.625343 133 1182ft 152kts
10-Sep-17 17:04 35.189402 -120.608768 142 1199ft 153kts
10-Sep-17 17:05 35.173856 -120.599763 163 1354ft 145kts
10-Sep-17 17:06 35.158091 -120.593010 165 1699ft 141kts
10-Sep-17 17:07 35.142439 -120.586437 167 2044ft 139kts
10-Sep-17 17:08 35.127613 -120.580639 167 2224ft 139kts
10-Sep-17 17:09 35.113402 -120.572276 156 2211ft 138kts
10-Sep-17 17:10 35.098907 -120.562490 156 2210ft 135kts
10-Sep-17 17:11 35.085508 -120.553415 156 2211ft 134kts
10-Sep-17 17:12 35.071553 -120.545785 165 2211ft 131kts
10-Sep-17 17:13 35.056874 -120.539194 165 2211ft 131kts
10-Sep-17 17:14 35.041821 -120.532453 165 2212ft 131kts
10-Sep-17 17:15 35.027117 -120.525463 163 2212ft 131kts
10-Sep-17 17:16 35.011678 -120.518112 165 2015ft 139kts
10-Sep-17 17:17 34.995193 -120.509592 152 1854ft 142kts
10-Sep-17 17:18 34.979035 -120.497055 154 1575ft 147kts
10-Sep-17 17:19 34.961341 -120.485672 159 1190ft 152kts
10-Sep-17 17:20 34.943954 -120.474871 149 1203ft 137kts
10-Sep-17 17:21 34.930332 -120.464825 154 1206ft 128kts
10-Sep-17 17:22 34.917631 -120.455057 146 1207ft 126kts
10-Sep-17 17:23 34.907343 -120.442420 140 1197ft 106kts
10-Sep-17 17:24 34.899391 -120.432188 140 1209ft 93kts
10-Sep-17 17:25 34.890903 -120.421894 150 1018ft 102kts
10-Sep-17 17:26 34.881618 -120.424080 228 873ft 86kts
10-Sep-17 17:27 34.883504 -120.434285 302 613ft 83kts
10-Sep-17 17:28 34.890611 -120.443070 307 342ft 80kts
10-Sep-17 17:29 34.896742 -120.450553 315 263ft 49kts
10-Sep-17 17:30 34.900014 -120.453306 359 263ft 17kts
10-Sep-17 17:31 34.900392 -120.453286 4 263ft 0kts
10-Sep-17 17:32 34.900593 -120.453270 0 263ft 9kts
10-Sep-17 17:33 34.901374 -120.452227 60 263ft 7kts
10-Sep-17 17:34 34.901539 -120.451994 43 263ft 0kts
10-Sep-17 17:35 34.901539 -120.451994 43 263ft 0kts

Navigation Log

Ident Type
1. KSBP Airport
2. KSMX Airport